Time;durP1;ratioP1;P1;durP2;ratioP2;P2;SDS_P1;SDS_P2;PMS_P1;PMS_P2;Temp;Humidity;BMP_temperature;BMP_pressure;BME280_temperature;BME280_humidity;BME280_pressure;Samples;Min_cycle;Max_cycle;Signal;HPM_P1;HPM_P2
2023/06/23 03:01:14;;;;;;;116.73;110.60;;;17.70;99.90;;;;;;5453195;23;20254;-70
2023/06/23 03:03:41;;;;;;;127.17;120.23;;;17.70;99.90;;;;;;4855519;29;20276;-70
2023/06/23 03:06:20;;;;;;;153.47;145.27;;;17.70;99.90;;;;;;4850692;29;20213;-70
2023/06/23 03:08:50;;;;;;;116.00;109.77;;;17.70;99.90;;;;;;4842783;29;20196;-70
2023/06/23 03:11:18;;;;;;;108.43;102.60;;;17.70;99.90;;;;;;4859668;29;20219;-70
2023/06/23 03:13:44;;;;;;;107.00;101.30;;;17.60;99.90;;;;;;4852343;29;20606;-70
2023/06/23 03:16:19;;;;;;;116.13;109.70;;;17.60;99.90;;;;;;4881793;24;20228;-69
2023/06/23 03:18:53;;;;;;;69.13;65.37;;;17.60;99.90;;;;;;4877014;29;20766;-71
2023/06/23 03:21:22;;;;;;;123.80;116.97;;;17.60;99.90;;;;;;4877590;29;20283;-69
2023/06/23 03:23:50;;;;;;;243.83;230.47;;;17.50;99.90;;;;;;4857206;29;20211;-69
2023/06/23 03:26:19;;;;;;;277.87;263.13;;;17.60;99.90;;;;;;4856428;29;20208;-69
2023/06/23 03:28:48;;;;;;;101.00;95.63;;;17.60;99.90;;;;;;4851157;29;20197;-69
2023/06/23 03:31:16;;;;;;;83.30;78.67;;;17.50;99.90;;;;;;4852699;29;20185;-67
2023/06/23 03:33:44;;;;;;;73.93;69.83;;;17.60;99.90;;;;;;4859012;29;20661;-68
2023/06/23 03:36:19;;;;;;;76.50;72.23;;;17.60;99.90;;;;;;4851385;29;20265;-68
2023/06/23 03:38:52;;;;;;;169.30;160.23;;;17.70;99.90;;;;;;4851149;29;20307;-68
2023/06/23 03:41:19;;;;;;;67.03;63.23;;;17.80;99.90;;;;;;4858598;29;20197;-69
2023/06/23 03:43:54;;;;;;;31.87;29.90;;;17.80;99.90;;;;;;4859210;29;20625;-70
2023/06/23 03:46:38;;;;;;;18.85;17.48;;;17.90;99.90;;;;;;4858357;29;20561;-67
2023/06/23 03:49:05;;;;;;;88.10;82.60;;;17.90;99.90;;;;;;4857966;29;20259;-68
2023/06/23 03:51:34;;;;;;;176.43;166.13;;;17.90;99.90;;;;;;4858040;29;20211;-67
2023/06/23 03:54:01;;;;;;;335.53;316.40;;;17.90;99.90;;;;;;4858419;29;20204;-68
2023/06/23 03:56:33;;;;;;;62.38;58.78;;;18.00;99.90;;;;;;4849117;29;20239;-67
2023/06/23 03:59:02;;;;;;;90.15;84.65;;;17.90;99.90;;;;;;4850679;29;20212;-68
2023/06/23 04:01:29;;;;;;;130.77;123.13;;;18.00;99.90;;;;;;4851122;29;20280;-68
2023/06/23 04:03:57;;;;;;;183.07;172.33;;;18.00;99.90;;;;;;4854890;29;20196;-68
2023/06/23 04:06:26;;;;;;;209.35;197.07;;;18.00;99.90;;;;;;4841403;29;20212;-68
2023/06/23 04:08:54;;;;;;;211.02;198.68;;;18.10;99.90;;;;;;4857715;29;20252;-68
2023/06/23 04:11:22;;;;;;;170.18;161.07;;;18.10;99.90;;;;;;4852532;29;20189;-68
2023/06/23 04:13:50;;;;;;;68.33;64.53;;;18.10;99.90;;;;;;4857557;29;20623;-68
2023/06/23 04:16:17;;;;;;;60.30;56.83;;;18.20;99.90;;;;;;4857881;29;20232;-68
2023/06/23 04:18:46;;;;;;;127.40;120.28;;;18.20;99.90;;;;;;4857736;29;20220;-68
2023/06/23 04:21:15;;;;;;;108.27;102.30;;;18.30;99.90;;;;;;4857822;29;20558;-69
2023/06/23 04:23:43;;;;;;;144.60;136.57;;;18.30;99.90;;;;;;4858118;29;20193;-69
2023/06/23 04:26:11;;;;;;;160.57;151.90;;;18.30;99.90;;;;;;4850533;29;20232;-70
2023/06/23 04:28:41;;;;;;;45.40;42.63;;;18.40;99.90;;;;;;4857339;29;20204;-68
2023/06/23 04:31:09;;;;;;;96.85;91.10;;;18.40;99.90;;;;;;4858004;29;20211;-70
2023/06/23 04:33:36;;;;;;;110.22;104.03;;;18.40;99.90;;;;;;4857984;29;20238;-70
2023/06/23 04:36:16;;;;;;;198.43;187.52;;;18.50;99.90;;;;;;4857567;29;20220;-70
2023/06/23 04:38:58;;;;;;;144.05;136.10;;;18.60;99.90;;;;;;4855310;29;20220;-70
2023/06/23 04:41:27;;;;;;;71.30;67.03;;;18.70;99.90;;;;;;4836771;29;20194;-69
2023/06/23 04:43:56;;;;;;;22.00;20.40;;;18.80;99.90;;;;;;4842161;29;20698;-70
2023/06/23 04:46:28;;;;;;;13.95;12.63;;;18.90;99.90;;;;;;4851386;29;20853;-70
2023/06/23 04:49:01;;;;;;;23.67;21.85;;;19.00;99.90;;;;;;4857668;29;20585;-70
2023/06/23 04:51:34;;;;;;;34.00;31.48;;;19.00;99.90;;;;;;4851046;29;20288;-69
2023/06/23 04:54:10;;;;;;;34.45;32.22;;;19.10;99.90;;;;;;4857726;29;20592;-68
2023/06/23 04:56:37;;;;;;;24.77;22.98;;;19.10;99.90;;;;;;4857857;29;20217;-70
2023/06/23 04:59:07;;;;;;;50.85;47.70;;;19.20;99.90;;;;;;4857302;29;20307;-69
2023/06/23 05:01:33;;;;;;;92.65;87.43;;;19.30;99.90;;;;;;4858803;29;20571;-68
2023/06/23 05:04:03;;;;;;;125.80;119.05;;;19.40;99.90;;;;;;4861593;29;20193;-69
2023/06/23 05:06:33;;;;;;;122.13;115.60;;;19.50;99.90;;;;;;4842215;29;20687;-69
2023/06/23 05:09:00;;;;;;;117.72;111.22;;;19.60;99.90;;;;;;4853081;29;20260;-69
2023/06/23 05:11:27;;;;;;;84.53;79.82;;;19.60;99.90;;;;;;4861402;29;20197;-69
2023/06/23 05:13:54;;;;;;;21.83;19.88;;;19.70;99.90;;;;;;4861118;29;20201;-69
2023/06/23 05:16:22;;;;;;;15.02;13.70;;;19.80;99.90;;;;;;4860583;29;20240;-69
2023/06/23 05:18:48;;;;;;;99.50;94.18;;;20.00;99.90;;;;;;4860792;29;20311;-69
2023/06/23 05:21:17;;;;;;;163.98;155.50;;;20.30;99.90;;;;;;4856831;29;20185;-69
2023/06/23 05:23:46;;;;;;;47.25;44.15;;;20.50;99.90;;;;;;4844633;29;20197;-69
2023/06/23 05:26:14;;;;;;;29.35;27.05;;;21.00;99.90;;;;;;4861142;29;20219;-69
2023/06/23 05:28:41;;;;;;;35.72;32.95;;;21.40;99.90;;;;;;4860254;29;20205;-69
2023/06/23 05:31:08;;;;;;;35.65;33.22;;;21.80;99.90;;;;;;4860840;29;20203;-69
2023/06/23 05:33:37;;;;;;;24.38;22.67;;;21.80;99.90;;;;;;4860810;29;20197;-70
2023/06/23 05:36:07;;;;;;;34.80;31.83;;;21.90;99.90;;;;;;4849231;29;20214;-70
2023/06/23 05:38:36;;;;;;;45.65;42.53;;;21.70;99.90;;;;;;4855454;29;20252;-70
2023/06/23 05:41:02;;;;;;;26.50;24.15;;;21.30;99.90;;;;;;4860621;29;20189;-70
2023/06/23 05:43:28;;;;;;;19.83;18.00;;;21.10;99.90;;;;;;4860310;29;20287;-67
2023/06/23 05:45:55;;;;;;;19.40;16.15;;;20.80;99.90;;;;;;4860332;29;20358;-68
2023/06/23 05:48:28;;;;;;;18.27;16.52;;;20.60;99.90;;;;;;4860104;29;20193;-68
2023/06/23 05:50:55;;;;;;;29.40;26.85;;;20.40;99.90;;;;;;4855709;29;20678;-68
2023/06/23 05:53:24;;;;;;;62.50;58.63;;;20.40;99.90;;;;;;4860546;29;20200;-69
2023/06/23 05:55:53;;;;;;;30.23;27.70;;;20.40;99.90;;;;;;4860350;29;20617;-68
2023/06/23 05:58:24;;;;;;;37.47;34.30;;;20.30;99.90;;;;;;4849770;29;20218;-69
2023/06/23 06:00:59;;;;;;;43.75;40.38;;;20.20;99.90;;;;;;4862733;29;20199;-68
2023/06/23 06:03:33;;;;;;;69.47;65.10;;;20.10;99.90;;;;;;4869652;29;20214;-69
2023/06/23 06:06:01;;;;;;;66.50;62.25;;;20.10;99.90;;;;;;4851339;29;20217;-68
2023/06/23 06:08:28;;;;;;;68.10;63.65;;;20.00;99.90;;;;;;4860230;29;20197;-68
2023/06/23 06:10:58;;;;;;;42.05;39.03;;;19.90;99.90;;;;;;4865043;29;20296;-68
2023/06/23 06:13:25;;;;;;;32.50;29.98;;;19.90;99.90;;;;;;4859730;29;20208;-68
2023/06/23 06:15:53;;;;;;;26.45;23.75;;;19.90;99.90;;;;;;4859786;29;20228;-68
2023/06/23 06:18:20;;;;;;;38.03;34.72;;;19.80;99.90;;;;;;4857804;29;20237;-70
2023/06/23 06:20:48;;;;;;;24.73;20.15;;;19.70;99.90;;;;;;4857147;29;20192;-68
2023/06/23 06:23:16;;;;;;;26.35;23.90;;;19.70;99.90;;;;;;4859107;29;20624;-69
2023/06/23 06:25:44;;;;;;;23.00;20.70;;;19.80;99.90;;;;;;4859722;29;20204;-69
2023/06/23 06:28:12;;;;;;;47.38;43.47;;;19.80;99.90;;;;;;4859518;29;20751;-68
2023/06/23 06:30:41;;;;;;;64.47;60.28;;;19.90;99.90;;;;;;4859433;29;20701;-68
2023/06/23 06:33:09;;;;;;;57.08;52.88;;;19.90;99.90;;;;;;4858426;29;20199;-68
2023/06/23 06:35:36;;;;;;;63.40;59.00;;;19.80;99.90;;;;;;4854723;29;20241;-68
2023/06/23 06:38:04;;;;;;;44.42;41.15;;;19.80;99.90;;;;;;4858407;29;20228;-68
2023/06/23 06:40:31;;;;;;;49.95;46.13;;;19.90;99.90;;;;;;4859619;29;20718;-68
2023/06/23 06:42:56;;;;;;;56.58;52.42;;;19.90;99.90;;;;;;4859653;29;20295;-68
2023/06/23 06:45:22;;;;;;;35.22;32.08;;;19.90;99.90;;;;;;4859350;29;20279;-68
2023/06/23 06:47:49;;;;;;;21.70;19.40;;;20.00;99.90;;;;;;4833497;29;20198;-68
2023/06/23 06:50:16;;;;;;;22.15;18.42;;;19.90;99.90;;;;;;4839969;29;20197;-68
2023/06/23 06:52:43;;;;;;;22.15;18.70;;;19.90;99.90;;;;;;4859251;29;20254;-68
2023/06/23 06:55:17;;;;;;;22.48;19.58;;;19.90;99.90;;;;;;4858826;29;20197;-68
2023/06/23 06:57:47;;;;;;;22.40;19.98;;;20.10;99.90;;;;;;4858645;29;20207;-69
2023/06/23 07:00:18;;;;;;;23.48;21.08;;;20.20;99.90;;;;;;4859098;29;20276;-69
2023/06/23 07:02:45;;;;;;;38.50;35.42;;;20.50;99.90;;;;;;4858633;29;20549;-68
2023/06/23 07:05:11;;;;;;;21.02;18.92;;;21.20;99.90;;;;;;4857120;29;20680;-68
2023/06/23 07:07:38;;;;;;;41.60;38.33;;;21.50;99.90;;;;;;4857614;29;20253;-68
2023/06/23 07:10:04;;;;;;;48.30;44.70;;;21.30;99.90;;;;;;4858593;29;20193;-69
2023/06/23 07:12:33;;;;;;;46.53;43.20;;;21.10;99.90;;;;;;4858889;29;20196;-68
2023/06/23 07:14:58;;;;;;;46.05;42.50;;;21.10;99.90;;;;;;4858712;29;20224;-69
2023/06/23 07:17:24;;;;;;;52.75;48.92;;;21.40;99.90;;;;;;4858134;29;21387;-68
2023/06/23 07:19:50;;;;;;;25.92;23.70;;;21.60;99.90;;;;;;4858600;29;20228;-69
2023/06/23 07:22:17;;;;;;;25.50;23.17;;;21.50;99.90;;;;;;4853931;29;20212;-69
2023/06/23 07:24:42;;;;;;;29.73;27.15;;;21.30;99.90;;;;;;4858067;29;20196;-68
2023/06/23 07:27:08;;;;;;;43.03;39.40;;;21.20;99.90;;;;;;4856836;29;20469;-69
2023/06/23 07:29:34;;;;;;;58.78;54.80;;;21.10;99.90;;;;;;4858407;29;20193;-69
2023/06/23 07:32:01;;;;;;;67.43;62.95;;;21.00;99.90;;;;;;4858279;29;20208;-69
2023/06/23 07:34:29;;;;;;;61.78;57.47;;;20.90;99.90;;;;;;4859141;29;20197;-69
2023/06/23 07:36:55;;;;;;;62.95;58.45;;;20.80;99.90;;;;;;4850834;29;20213;-68
2023/06/23 07:39:21;;;;;;;39.97;36.80;;;20.60;99.90;;;;;;4858052;29;20219;-69
2023/06/23 07:41:47;;;;;;;35.65;32.80;;;20.50;99.90;;;;;;4857642;29;20204;-68
2023/06/23 07:44:13;;;;;;;36.50;33.67;;;20.50;99.90;;;;;;4857193;29;20653;-68
2023/06/23 07:46:38;;;;;;;37.03;34.13;;;20.60;99.90;;;;;;4858503;29;20702;-68
2023/06/23 07:49:04;;;;;;;36.17;33.40;;;20.60;99.90;;;;;;4826242;29;20186;-68
2023/06/23 07:51:30;;;;;;;42.03;39.03;;;20.60;99.90;;;;;;4850523;29;20193;-68
2023/06/23 07:53:56;;;;;;;41.58;38.42;;;20.80;99.90;;;;;;4856642;29;20275;-68
2023/06/23 07:56:23;;;;;;;54.22;50.53;;;21.00;99.90;;;;;;4858217;29;20220;-72
2023/06/23 07:58:48;;;;;;;39.85;36.95;;;21.20;99.90;;;;;;4857506;29;20216;-72
2023/06/23 08:01:14;;;;;;;23.25;21.17;;;21.40;99.90;;;;;;4858419;29;20196;-73
2023/06/23 08:03:47;;;;;;;27.05;24.73;;;21.30;99.90;;;;;;4858054;29;20229;-74
2023/06/23 08:06:13;;;;;;;22.40;20.48;;;21.20;99.90;;;;;;4850557;29;20223;-72
2023/06/23 08:08:40;;;;;;;35.03;32.42;;;21.30;99.90;;;;;;4856602;29;20193;-73
2023/06/23 08:11:06;;;;;;;99.13;93.40;;;21.50;99.90;;;;;;4856297;29;20199;-72
2023/06/23 08:13:32;;;;;;;91.25;86.00;;;21.60;99.90;;;;;;4836157;29;20261;-73
2023/06/23 08:15:57;;;;;;;80.80;76.05;;;21.70;99.90;;;;;;4864316;29;20221;-73
2023/06/23 08:18:23;;;;;;;38.80;35.75;;;21.70;99.90;;;;;;4861010;29;20223;-73
2023/06/23 08:20:49;;;;;;;70.38;66.18;;;21.60;99.90;;;;;;4857825;29;20523;-73
2023/06/23 08:23:15;;;;;;;67.32;62.30;;;21.60;99.90;;;;;;4858085;29;20227;-73
2023/06/23 08:25:41;;;;;;;58.25;52.10;;;21.80;99.90;;;;;;4858011;29;20240;-73
2023/06/23 08:28:07;;;;;;;28.85;26.25;;;21.80;99.90;;;;;;4856285;29;20193;-73
2023/06/23 08:30:33;;;;;;;21.30;19.17;;;21.90;99.90;;;;;;4858321;29;20200;-72
2023/06/23 08:32:59;;;;;;;20.58;18.65;;;21.90;99.90;;;;;;4857999;29;20189;-72
2023/06/23 08:35:25;;;;;;;24.80;22.25;;;22.00;99.90;;;;;;4851045;29;20192;-72
2023/06/23 08:37:51;;;;;;;31.70;29.23;;;22.20;99.90;;;;;;4838994;29;20281;-73
2023/06/23 08:40:17;;;;;;;25.25;23.05;;;23.20;99.90;;;;;;4856710;29;20221;-73
2023/06/23 08:42:43;;;;;;;38.92;36.13;;;23.80;99.90;;;;;;4861232;29;20197;-73
2023/06/23 08:45:12;;;;;;;25.85;23.60;;;24.10;99.90;;;;;;4860980;29;20203;-74
2023/06/23 08:47:47;;;;;;;16.63;14.20;;;24.50;99.90;;;;;;4860194;29;20212;-71
2023/06/23 08:50:13;;;;;;;22.20;20.50;;;24.10;99.90;;;;;;4852570;29;20668;-72
2023/06/23 08:52:39;;;;;;;31.27;28.65;;;23.20;99.90;;;;;;4860106;29;20345;-72
2023/06/23 08:55:06;;;;;;;33.20;30.73;;;23.10;99.90;;;;;;4860300;29;20686;-71
2023/06/23 08:57:32;;;;;;;31.48;28.58;;;23.50;99.90;;;;;;4859749;29;20216;-72
2023/06/23 08:59:59;;;;;;;20.27;18.33;;;24.00;99.90;;;;;;4856336;29;20213;-72
2023/06/23 09:02:24;;;;;;;19.23;17.70;;;24.50;99.90;;;;;;4860311;29;20189;-71
2023/06/23 09:04:50;;;;;;;28.55;26.23;;;24.30;99.90;;;;;;4853411;29;20197;-73
2023/06/23 09:07:16;;;;;;;19.30;17.80;;;24.80;99.90;;;;;;4838269;29;20206;-73
2023/06/23 09:09:47;;;;;;;18.08;16.60;;;25.00;99.90;;;;;;4859065;29;20677;-73
2023/06/23 09:12:21;;;;;;;20.13;18.30;;;25.20;99.90;;;;;;4837737;29;20280;-73
2023/06/23 09:14:57;;;;;;;18.77;16.95;;;25.00;99.90;;;;;;4841027;29;20200;-71
2023/06/23 09:17:23;;;;;;;15.55;14.02;;;24.60;99.90;;;;;;4889942;23;20236;-69
2023/06/23 09:19:50;;;;;;;14.43;12.93;;;24.80;99.90;;;;;;4870479;29;20689;-68
2023/06/23 09:22:18;;;;;;;16.48;14.77;;;24.70;99.90;;;;;;4874033;29;20192;-68
2023/06/23 09:24:44;;;;;;;14.02;12.70;;;24.50;99.90;;;;;;4879410;29;20210;-68
2023/06/23 09:27:10;;;;;;;11.52;10.52;;;24.80;99.90;;;;;;4878666;29;20239;-68
2023/06/23 09:29:37;;;;;;;10.38;9.45;;;25.10;99.90;;;;;;4875358;29;20646;-68
2023/06/23 09:32:04;;;;;;;10.90;9.77;;;25.20;99.90;;;;;;4856704;29;20692;-69
2023/06/23 09:34:36;;;;;;;9.65;8.88;;;25.10;99.90;;;;;;4879403;29;20201;-68
2023/06/23 09:37:12;;;;;;;9.43;8.40;;;25.40;99.90;;;;;;4878482;29;20561;-68
2023/06/23 09:39:40;;;;;;;9.80;9.07;;;25.80;99.90;;;;;;4861699;29;20259;-68
2023/06/23 09:42:12;;;;;;;12.00;11.07;;;25.50;99.90;;;;;;4870008;29;20193;-68
2023/06/23 09:44:45;;;;;;;11.50;10.60;;;25.30;99.90;;;;;;4872180;29;20193;-68
2023/06/23 09:47:14;;;;;;;12.13;9.65;;;25.00;99.90;;;;;;4862501;29;20218;-69
2023/06/23 09:49:47;;;;;;;19.40;18.13;;;25.60;99.90;;;;;;4870649;29;20192;-68
2023/06/23 09:52:25;;;;;;;20.00;18.63;;;26.30;99.90;;;;;;4881600;29;20681;-69
2023/06/23 09:54:51;;;;;;;20.80;19.50;;;26.40;99.90;;;;;;4877215;29;20194;-69
2023/06/23 09:57:19;;;;;;;24.33;22.73;;;26.10;99.90;;;;;;4878247;29;20219;-69
2023/06/23 09:59:50;;;;;;;15.93;14.73;;;26.50;99.90;;;;;;4875223;29;20216;-69
2023/06/23 10:02:22;;;;;;;23.88;22.42;;;27.30;99.90;;;;;;4876115;29;20757;-69
2023/06/23 10:04:49;;;;;;;17.00;15.88;;;27.60;99.90;;;;;;4861648;29;20250;-70
2023/06/23 10:07:23;;;;;;;15.00;14.07;;;27.50;98.40;;;;;;4873276;29;20693;-70
2023/06/23 10:09:57;;;;;;;15.90;14.70;;;27.70;97.80;;;;;;4861927;29;20566;-69
2023/06/23 10:12:26;;;;;;;31.52;29.27;;;27.30;98.70;;;;;;4878252;29;20207;-70
2023/06/23 10:14:54;;;;;;;22.98;21.15;;;25.90;99.50;;;;;;4878660;29;20677;-69
2023/06/23 10:17:20;;;;;;;21.88;20.38;;;24.90;99.90;;;;;;4878058;29;20231;-70
2023/06/23 10:19:50;;;;;;;14.57;13.43;;;24.50;99.90;;;;;;4871256;29;20216;-70
2023/06/23 10:22:20;;;;;;;23.30;21.75;;;25.10;99.90;;;;;;4878487;29;20287;-69
2023/06/23 10:24:49;;;;;;;15.95;14.75;;;25.70;99.90;;;;;;4878595;29;20196;-70
2023/06/23 10:27:20;;;;;;;28.67;26.80;;;26.20;99.90;;;;;;4877823;29;20299;-70
2023/06/23 10:29:50;;;;;;;34.25;32.35;;;26.70;98.90;;;;;;4878486;29;20196;-70
2023/06/23 10:32:17;;;;;;;25.10;23.48;;;27.20;98.90;;;;;;4878743;29;20287;-70
2023/06/23 10:34:44;;;;;;;27.77;25.88;;;27.10;98.00;;;;;;4873687;29;20597;-70
2023/06/23 10:37:15;;;;;;;20.38;19.10;;;27.20;97.70;;;;;;4877845;29;20240;-71
2023/06/23 10:39:47;;;;;;;18.85;17.67;;;27.20;98.20;;;;;;4878318;29;20259;-70
2023/06/23 10:42:15;;;;;;;16.48;15.35;;;27.60;98.00;;;;;;4878041;29;20196;-71
2023/06/23 10:44:41;;;;;;;25.65;23.98;;;26.90;97.40;;;;;;4861781;29;20241;-71
2023/06/23 10:47:08;;;;;;;45.08;42.38;;;25.90;99.90;;;;;;4877408;29;20224;-70
2023/06/23 10:49:35;;;;;;;18.40;17.23;;;25.10;99.90;;;;;;4867361;29;20199;-71
2023/06/23 10:52:03;;;;;;;19.60;18.27;;;24.50;99.90;;;;;;4877805;29;20386;-70
2023/06/23 10:54:30;;;;;;;11.40;8.90;;;24.20;99.90;;;;;;4877871;29;20199;-70
2023/06/23 10:56:57;;;;;;;19.40;18.00;;;24.70;99.90;;;;;;4860413;29;20697;-71
2023/06/23 10:59:29;;;;;;;22.17;20.77;;;25.40;99.90;;;;;;4877129;29;20220;-71
2023/06/23 11:02:02;;;;;;;28.88;27.15;;;26.60;99.90;;;;;;4863905;29;20756;-70
2023/06/23 11:04:33;;;;;;;12.43;11.38;;;27.90;99.80;;;;;;4860792;29;20199;-71
2023/06/23 11:07:06;;;;;;;10.15;8.93;;;28.60;98.50;;;;;;4874472;29;20574;-70
2023/06/23 11:09:49;;;;;;;13.13;12.32;;;28.40;97.30;;;;;;4877520;29;20192;-70
2023/06/23 11:12:29;;;;;;;25.63;24.02;;;27.40;98.70;;;;;;4860699;29;20287;-71
2023/06/23 11:15:12;;;;;;;36.53;34.35;;;26.30;99.80;;;;;;4877599;29;20302;-70
2023/06/23 11:18:00;;;;;;;47.47;44.88;;;25.90;99.90;;;;;;4856777;29;20248;-71
2023/06/23 11:20:30;;;;;;;44.78;41.85;;;26.00;99.90;;;;;;4876693;29;20267;-70
2023/06/23 11:23:00;;;;;;;17.00;15.82;;;26.40;99.70;;;;;;4860657;29;20729;-76
2023/06/23 11:25:33;;;;;;;8.68;8.02;;;27.10;97.80;;;;;;4876336;29;20223;-75
2023/06/23 11:28:25;;;;;;;9.43;8.48;;;27.50;96.40;;;;;;4861819;29;20188;-75
2023/06/23 11:31:03;;;;;;;15.55;14.55;;;27.30;94.50;;;;;;4884324;29;20200;-75
2023/06/23 11:33:33;;;;;;;40.53;38.33;;;27.40;93.50;;;;;;4863701;29;20606;-75
2023/06/23 11:36:20;;;;;;;61.40;58.30;;;28.00;92.80;;;;;;4858930;29;20292;-75
2023/06/23 11:38:46;;;;;;;64.55;60.58;;;28.40;91.60;;;;;;4860167;29;20215;-75
2023/06/23 11:41:14;;;;;;;55.75;52.65;;;27.80;92.50;;;;;;4860417;29;20193;-75
2023/06/23 11:43:42;;;;;;;23.98;22.30;;;27.70;92.80;;;;;;4877211;29;20268;-75
2023/06/23 11:46:13;;;;;;;12.90;11.90;;;27.00;93.70;;;;;;4875216;29;20208;-75
2023/06/23 11:48:40;;;;;;;35.72;33.50;;;26.20;94.80;;;;;;4876465;29;20219;-75
2023/06/23 11:51:08;;;;;;;32.47;30.58;;;25.60;96.00;;;;;;4876007;29;20252;-77
2023/06/23 11:53:35;;;;;;;25.52;23.73;;;26.30;96.10;;;;;;4877758;29;20200;-77
2023/06/23 11:56:02;;;;;;;11.30;9.77;;;27.30;95.20;;;;;;4877046;29;20571;-76
2023/06/23 11:58:32;;;;;;;50.97;48.10;;;28.40;92.70;;;;;;4860376;29;20264;-75
2023/06/23 12:00:59;;;;;;;44.33;42.00;;;28.80;91.10;;;;;;4872335;29;20189;-74
2023/06/23 12:03:25;;;;;;;48.65;46.13;;;27.70;90.20;;;;;;4876560;29;20203;-71
2023/06/23 12:05:54;;;;;;;19.95;18.80;;;26.80;90.90;;;;;;4872698;29;20619;-70
2023/06/23 12:08:23;;;;;;;14.50;13.63;;;26.10;91.80;;;;;;4869138;29;20561;-70
2023/06/23 12:10:51;;;;;;;6.70;6.25;;;26.10;92.70;;;;;;4858961;29;20188;-70
2023/06/23 12:13:19;;;;;;;61.13;58.03;;;27.20;91.40;;;;;;4877069;29;20584;-69
2023/06/23 12:15:45;;;;;;;31.30;29.63;;;28.10;90.00;;;;;;4868303;29;20185;-69
2023/06/23 12:18:12;;;;;;;17.33;16.10;;;29.40;85.90;;;;;;4876603;29;20188;-71
2023/06/23 12:20:40;;;;;;;14.75;13.80;;;29.70;83.10;;;;;;4876248;29;20199;-71
2023/06/23 12:23:08;;;;;;;25.00;23.42;;;28.50;85.30;;;;;;4860458;29;20669;-71
2023/06/23 12:25:38;;;;;;;53.10;50.30;;;27.40;87.40;;;;;;4867910;29;20180;-71
2023/06/23 12:28:05;;;;;;;45.90;43.20;;;27.50;89.50;;;;;;4875973;29;20807;-72
2023/06/23 12:30:50;;;;;;;28.20;26.77;;;28.20;86.10;;;;;;4873418;29;20188;-71
2023/06/23 12:33:20;;;;;;;18.08;17.05;;;28.70;83.80;;;;;;4859554;29;20215;-72
2023/06/23 12:36:03;;;;;;;17.98;16.90;;;28.10;82.80;;;;;;4876549;29;20200;-71
2023/06/23 12:38:34;;;;;;;14.35;13.55;;;28.40;82.40;;;;;;4878981;29;20542;-78
2023/06/23 12:41:20;;;;;;;10.50;9.43;;;29.00;81.50;;;;;;4886808;29;20220;-78
2023/06/23 12:43:52;;;;;;;24.48;23.02;;;27.50;81.20;;;;;;4869598;29;20215;-78
2023/06/23 12:46:23;;;;;;;50.22;47.65;;;26.50;84.30;;;;;;4862317;29;20390;-78
2023/06/23 12:48:50;;;;;;;73.75;70.18;;;25.90;86.10;;;;;;4866712;29;20616;-78
2023/06/23 12:51:16;;;;;;;84.90;80.60;;;25.90;86.50;;;;;;4869804;29;20196;-78
2023/06/23 12:53:42;;;;;;;45.13;42.83;;;27.30;85.20;;;;;;4871182;29;20252;-78
2023/06/23 12:56:08;;;;;;;11.23;10.50;;;28.80;81.80;;;;;;4885166;29;20216;-79
2023/06/23 12:58:33;;;;;;;8.55;5.28;;;30.10;77.70;;;;;;4867175;29;20227;-79
2023/06/23 13:01:02;;;;;;;11.32;10.13;;;30.60;74.60;;;;;;4881196;29;20188;-79
2023/06/23 13:03:28;;;;;;;8.48;7.78;;;29.70;75.00;;;;;;4862321;29;20196;-78
2023/06/23 13:05:54;;;;;;;5.53;5.03;;;28.80;75.90;;;;;;4886750;29;20184;-78
2023/06/23 13:08:20;;;;;;;13.77;12.48;;;28.80;78.00;;;;;;4872796;29;20241;-79
2023/06/23 13:10:46;;;;;;;7.70;7.03;;;29.00;78.10;;;;;;4896745;29;20197;-78
2023/06/23 13:13:13;;;;;;;16.67;15.48;;;29.40;74.70;;;;;;4869696;29;20664;-79
2023/06/23 13:15:39;;;;;;;10.50;9.88;;;30.50;72.40;;;;;;4878637;29;20192;-78
2023/06/23 13:18:05;;;;;;;13.52;12.45;;;30.30;70.00;;;;;;4882318;29;20224;-79
2023/06/23 13:20:32;;;;;;;13.50;12.68;;;30.30;68.70;;;;;;4865630;29;20227;-79
2023/06/23 13:22:58;;;;;;;14.15;13.20;;;30.70;68.50;;;;;;4882502;29;20649;-79
2023/06/23 13:25:23;;;;;;;16.58;15.57;;;31.20;67.70;;;;;;4867953;29;20195;-79
2023/06/23 13:27:49;;;;;;;15.10;14.20;;;30.50;69.20;;;;;;4884894;29;20254;-79
2023/06/23 13:30:15;;;;;;;15.65;14.75;;;30.20;69.80;;;;;;4879257;29;20213;-79
2023/06/23 13:32:41;;;;;;;13.85;12.90;;;30.50;68.20;;;;;;4885082;29;20453;-79
2023/06/23 13:35:07;;;;;;;14.82;13.82;;;30.40;67.90;;;;;;4884579;29;20192;-79
2023/06/23 13:37:34;;;;;;;14.15;13.15;;;30.40;68.50;;;;;;4882568;29;20299;-78
2023/06/23 13:40:10;;;;;;;15.27;14.27;;;30.40;67.50;;;;;;4863934;29;20716;-79
2023/06/23 13:42:36;;;;;;;8.98;8.27;;;31.00;67.40;;;;;;4864808;29;20200;-78
2023/06/23 13:45:03;;;;;;;14.52;11.48;;;31.60;66.00;;;;;;4880363;29;20184;-80
2023/06/23 13:47:30;;;;;;;15.73;14.85;;;30.70;65.60;;;;;;4868580;29;20264;-80
2023/06/23 13:49:57;;;;;;;14.95;13.93;;;30.10;69.40;;;;;;4885577;29;20184;-80
2023/06/23 13:52:23;;;;;;;13.98;13.15;;;30.80;68.50;;;;;;4868556;29;20223;-80
2023/06/23 13:54:49;;;;;;;8.27;7.68;;;31.60;66.30;;;;;;4867420;29;20196;-80
2023/06/23 13:57:15;;;;;;;6.63;6.03;;;31.80;64.20;;;;;;4885412;29;20380;-80
2023/06/23 13:59:42;;;;;;;12.57;11.80;;;31.40;64.30;;;;;;4865465;29;20235;-80
2023/06/23 14:02:08;;;;;;;10.02;9.23;;;29.40;67.80;;;;;;4868164;29;20200;-80
2023/06/23 14:04:33;;;;;;;12.48;11.68;;;28.20;70.30;;;;;;4886043;29;20217;-80
2023/06/23 14:06:59;;;;;;;5.43;5.00;;;27.90;72.40;;;;;;4883866;29;20218;-80
2023/06/23 14:09:25;;;;;;;11.27;10.57;;;27.20;72.80;;;;;;4868202;29;20210;-80
2023/06/23 14:11:51;;;;;;;22.38;21.17;;;26.60;74.90;;;;;;4884274;29;20291;-80
2023/06/23 14:14:17;;;;;;;52.10;49.45;;;26.30;75.20;;;;;;4858784;29;20332;-79
2023/06/23 14:16:43;;;;;;;18.58;17.55;;;26.80;75.40;;;;;;4859014;29;20311;-79
2023/06/23 14:19:09;;;;;;;6.28;5.22;;;28.50;72.80;;;;;;4884426;29;20276;-80
2023/06/23 14:21:35;;;;;;;12.30;11.35;;;29.90;69.40;;;;;;4885122;29;20274;-79
2023/06/23 14:24:01;;;;;;;9.57;9.05;;;30.50;66.30;;;;;;4884009;29;20189;-79
2023/06/23 14:26:27;;;;;;;10.23;9.52;;;31.10;66.40;;;;;;4868241;29;20243;-79
2023/06/23 14:28:53;;;;;;;9.95;9.35;;;30.90;66.20;;;;;;4883330;29;20573;-80
2023/06/23 14:31:19;;;;;;;10.68;9.98;;;30.20;67.10;;;;;;4861831;29;20216;-80
2023/06/23 14:33:45;;;;;;;12.93;12.23;;;29.20;68.20;;;;;;4882742;29;20188;-80
2023/06/23 14:36:11;;;;;;;5.60;5.10;;;28.10;71.30;;;;;;4884179;29;20247;-79
2023/06/23 14:38:37;;;;;;;8.50;7.70;;;27.40;72.50;;;;;;4869938;29;20224;-79
2023/06/23 14:41:03;;;;;;;12.93;11.93;;;27.40;74.00;;;;;;4870258;29;20195;-80
2023/06/23 14:43:28;;;;;;;6.53;5.90;;;27.70;74.80;;;;;;4879264;29;20188;-80
2023/06/23 14:45:54;;;;;;;7.05;6.60;;;29.10;72.30;;;;;;4871519;29;20223;-80
2023/06/23 14:48:21;;;;;;;11.90;11.10;;;30.20;68.50;;;;;;4880734;29;20550;-81
2023/06/23 14:50:48;;;;;;;10.05;9.38;;;31.30;66.80;;;;;;4869659;29;20196;-80
2023/06/23 14:53:14;;;;;;;7.60;7.10;;;31.60;63.60;;;;;;4879347;29;20204;-79
2023/06/23 14:55:39;;;;;;;6.22;5.35;;;32.00;62.60;;;;;;4870862;29;20272;-80
2023/06/23 14:58:06;;;;;;;5.63;5.15;;;32.40;61.80;;;;;;4870779;29;20236;-80
2023/06/23 15:00:33;;;;;;;4.57;4.28;;;33.10;61.70;;;;;;4872992;29;20220;-79
2023/06/23 15:02:58;;;;;;;5.45;5.05;;;32.80;61.10;;;;;;4861495;29;20200;-80
2023/06/23 15:05:24;;;;;;;9.23;6.60;;;31.20;60.70;;;;;;4867027;29;20200;-80
2023/06/23 15:07:50;;;;;;;11.43;10.60;;;29.40;65.40;;;;;;4866374;29;20213;-79
2023/06/23 15:10:17;;;;;;;11.40;10.30;;;29.20;67.40;;;;;;4868300;29;20201;-80
2023/06/23 15:12:43;;;;;;;11.38;10.75;;;29.10;66.10;;;;;;4884955;29;20211;-80
2023/06/23 15:15:09;;;;;;;14.25;13.45;;;29.10;66.40;;;;;;4876618;29;20279;-80
2023/06/23 15:17:36;;;;;;;12.48;11.55;;;29.70;65.20;;;;;;4885790;24;20240;-78
2023/06/23 15:20:04;;;;;;;6.72;5.80;;;30.90;63.40;;;;;;4879977;29;20756;-78
2023/06/23 15:22:30;;;;;;;8.50;8.07;;;31.40;61.30;;;;;;4878381;29;20195;-78
2023/06/23 15:24:57;;;;;;;12.38;11.40;;;30.50;61.70;;;;;;4873921;29;20213;-78
2023/06/23 15:27:23;;;;;;;16.15;15.23;;;29.80;63.20;;;;;;4862703;29;20216;-78
2023/06/23 15:29:50;;;;;;;12.15;11.45;;;29.40;65.50;;;;;;4859645;29;20247;-78
2023/06/23 15:32:15;;;;;;;10.88;10.18;;;29.90;64.60;;;;;;4849201;29;20281;-78
2023/06/23 15:34:41;;;;;;;13.25;12.32;;;30.50;62.60;;;;;;4856128;29;20345;-78